sensor_id;sensor_type;location;lat;lon;timestamp;P1;durP1;ratioP1;P2;durP2;ratioP2
12976;SDS011;6553;48.412;9.514;2023-06-14T00:00:58;6.93;;;3.95;;
12976;SDS011;6553;48.412;9.514;2023-06-14T00:03:24;4.47;;;4.07;;
12976;SDS011;6553;48.412;9.514;2023-06-14T00:05:51;4.05;;;3.65;;
12976;SDS011;6553;48.412;9.514;2023-06-14T00:08:20;4.50;;;4.10;;
12976;SDS011;6553;48.412;9.514;2023-06-14T00:10:48;5.10;;;4.00;;
12976;SDS011;6553;48.412;9.514;2023-06-14T00:13:14;4.15;;;3.85;;
12976;SDS011;6553;48.412;9.514;2023-06-14T00:15:40;4.32;;;3.92;;
12976;SDS011;6553;48.412;9.514;2023-06-14T00:18:06;4.03;;;3.65;;
12976;SDS011;6553;48.412;9.514;2023-06-14T00:20:32;4.22;;;3.83;;
12976;SDS011;6553;48.412;9.514;2023-06-14T00:23:01;3.80;;;3.50;;
12976;SDS011;6553;48.412;9.514;2023-06-14T00:25:27;4.50;;;3.88;;
12976;SDS011;6553;48.412;9.514;2023-06-14T00:27:54;3.95;;;3.55;;
12976;SDS011;6553;48.412;9.514;2023-06-14T00:30:20;4.07;;;3.78;;
12976;SDS011;6553;48.412;9.514;2023-06-14T00:32:47;4.30;;;3.90;;
12976;SDS011;6553;48.412;9.514;2023-06-14T00:35:13;4.10;;;3.80;;
12976;SDS011;6553;48.412;9.514;2023-06-14T00:37:39;3.70;;;3.40;;
12976;SDS011;6553;48.412;9.514;2023-06-14T00:40:05;3.72;;;3.42;;
12976;SDS011;6553;48.412;9.514;2023-06-14T00:42:32;4.07;;;3.50;;
12976;SDS011;6553;48.412;9.514;2023-06-14T00:44:59;3.90;;;3.60;;
12976;SDS011;6553;48.412;9.514;2023-06-14T00:47:25;4.00;;;3.60;;
12976;SDS011;6553;48.412;9.514;2023-06-14T00:49:52;4.18;;;3.78;;
12976;SDS011;6553;48.412;9.514;2023-06-14T00:52:20;4.25;;;3.65;;
12976;SDS011;6553;48.412;9.514;2023-06-14T00:54:50;3.80;;;3.50;;
12976;SDS011;6553;48.412;9.514;2023-06-14T00:57:16;4.13;;;3.72;;
12976;SDS011;6553;48.412;9.514;2023-06-14T00:59:43;4.32;;;3.58;;
12976;SDS011;6553;48.412;9.514;2023-06-14T01:02:12;3.92;;;3.58;;
12976;SDS011;6553;48.412;9.514;2023-06-14T01:04:43;4.05;;;3.20;;
12976;SDS011;6553;48.412;9.514;2023-06-14T01:13:33;3.55;;;3.25;;
12976;SDS011;6553;48.412;9.514;2023-06-14T01:16:05;3.33;;;3.10;;
12976;SDS011;6553;48.412;9.514;2023-06-14T01:18:33;4.13;;;3.72;;
12976;SDS011;6553;48.412;9.514;2023-06-14T01:21:01;3.40;;;3.10;;
12976;SDS011;6553;48.412;9.514;2023-06-14T01:23:30;3.60;;;3.30;;
12976;SDS011;6553;48.412;9.514;2023-06-14T01:25:58;3.60;;;3.15;;
12976;SDS011;6553;48.412;9.514;2023-06-14T01:28:30;3.50;;;3.20;;
12976;SDS011;6553;48.412;9.514;2023-06-14T01:30:59;3.58;;;3.28;;
12976;SDS011;6553;48.412;9.514;2023-06-14T01:33:32;3.70;;;3.40;;
12976;SDS011;6553;48.412;9.514;2023-06-14T01:36:00;4.45;;;3.42;;
12976;SDS011;6553;48.412;9.514;2023-06-14T01:38:30;3.80;;;3.50;;
12976;SDS011;6553;48.412;9.514;2023-06-14T01:40:57;3.40;;;3.10;;
12976;SDS011;6553;48.412;9.514;2023-06-14T01:43:25;4.00;;;3.30;;
12976;SDS011;6553;48.412;9.514;2023-06-14T01:45:52;3.97;;;3.58;;
12976;SDS011;6553;48.412;9.514;2023-06-14T01:48:20;3.30;;;3.00;;
12976;SDS011;6553;48.412;9.514;2023-06-14T01:50:47;3.88;;;3.53;;
12976;SDS011;6553;48.412;9.514;2023-06-14T01:53:15;3.40;;;3.10;;
12976;SDS011;6553;48.412;9.514;2023-06-14T01:55:41;3.60;;;3.30;;
12976;SDS011;6553;48.412;9.514;2023-06-14T01:58:08;3.50;;;3.05;;
12976;SDS011;6553;48.412;9.514;2023-06-14T02:00:35;3.35;;;3.15;;
12976;SDS011;6553;48.412;9.514;2023-06-14T02:03:01;3.38;;;3.08;;
12976;SDS011;6553;48.412;9.514;2023-06-14T02:05:29;3.53;;;3.22;;
12976;SDS011;6553;48.412;9.514;2023-06-14T02:07:55;3.92;;;3.28;;
12976;SDS011;6553;48.412;9.514;2023-06-14T02:10:21;3.45;;;3.15;;
12976;SDS011;6553;48.412;9.514;2023-06-14T02:12:47;3.85;;;3.20;;
12976;SDS011;6553;48.412;9.514;2023-06-14T02:15:13;3.55;;;3.25;;
12976;SDS011;6553;48.412;9.514;2023-06-14T02:17:42;3.65;;;3.20;;
12976;SDS011;6553;48.412;9.514;2023-06-14T02:20:12;3.25;;;2.95;;
12976;SDS011;6553;48.412;9.514;2023-06-14T02:22:38;3.47;;;3.17;;
12976;SDS011;6553;48.412;9.514;2023-06-14T02:25:06;3.30;;;3.10;;
12976;SDS011;6553;48.412;9.514;2023-06-14T02:27:33;3.38;;;3.08;;
12976;SDS011;6553;48.412;9.514;2023-06-14T02:30:00;3.10;;;2.90;;
12976;SDS011;6553;48.412;9.514;2023-06-14T02:32:26;3.25;;;2.95;;
12976;SDS011;6553;48.412;9.514;2023-06-14T02:34:52;3.92;;;3.20;;
12976;SDS011;6553;48.412;9.514;2023-06-14T02:37:22;3.20;;;2.80;;
12976;SDS011;6553;48.412;9.514;2023-06-14T02:39:48;3.17;;;2.97;;
12976;SDS011;6553;48.412;9.514;2023-06-14T02:42:14;3.00;;;2.70;;
12976;SDS011;6553;48.412;9.514;2023-06-14T02:44:41;3.60;;;3.20;;
12976;SDS011;6553;48.412;9.514;2023-06-14T02:47:06;3.28;;;3.00;;
12976;SDS011;6553;48.412;9.514;2023-06-14T02:49:32;3.03;;;2.83;;
12976;SDS011;6553;48.412;9.514;2023-06-14T02:51:58;3.10;;;2.90;;
12976;SDS011;6553;48.412;9.514;2023-06-14T02:54:24;3.05;;;2.85;;
12976;SDS011;6553;48.412;9.514;2023-06-14T02:56:50;3.00;;;2.80;;
12976;SDS011;6553;48.412;9.514;2023-06-14T02:59:16;3.50;;;3.20;;
12976;SDS011;6553;48.412;9.514;2023-06-14T03:01:42;3.20;;;2.90;;
12976;SDS011;6553;48.412;9.514;2023-06-14T03:04:12;3.28;;;2.97;;
12976;SDS011;6553;48.412;9.514;2023-06-14T03:06:39;3.10;;;2.90;;
12976;SDS011;6553;48.412;9.514;2023-06-14T03:09:06;2.90;;;2.70;;
12976;SDS011;6553;48.412;9.514;2023-06-14T03:11:36;3.05;;;2.75;;
12976;SDS011;6553;48.412;9.514;2023-06-14T03:14:01;3.28;;;2.97;;
12976;SDS011;6553;48.412;9.514;2023-06-14T03:16:32;3.28;;;2.97;;
12976;SDS011;6553;48.412;9.514;2023-06-14T03:18:59;3.28;;;3.05;;
12976;SDS011;6553;48.412;9.514;2023-06-14T03:21:28;3.20;;;2.90;;
12976;SDS011;6553;48.412;9.514;2023-06-14T03:23:57;3.17;;;2.95;;
12976;SDS011;6553;48.412;9.514;2023-06-14T03:26:24;3.58;;;2.90;;
12976;SDS011;6553;48.412;9.514;2023-06-14T03:28:51;3.80;;;3.40;;
12976;SDS011;6553;48.412;9.514;2023-06-14T03:31:18;2.90;;;2.70;;
12976;SDS011;6553;48.412;9.514;2023-06-14T03:33:44;2.92;;;2.72;;
12976;SDS011;6553;48.412;9.514;2023-06-14T03:36:11;2.97;;;2.78;;
12976;SDS011;6553;48.412;9.514;2023-06-14T03:38:37;2.92;;;2.72;;
12976;SDS011;6553;48.412;9.514;2023-06-14T03:41:04;3.20;;;3.00;;
12976;SDS011;6553;48.412;9.514;2023-06-14T03:43:31;3.20;;;2.95;;
12976;SDS011;6553;48.412;9.514;2023-06-14T03:45:57;3.05;;;2.72;;
12976;SDS011;6553;48.412;9.514;2023-06-14T03:48:24;3.15;;;2.85;;
12976;SDS011;6553;48.412;9.514;2023-06-14T03:50:50;3.10;;;2.90;;
12976;SDS011;6553;48.412;9.514;2023-06-14T03:53:17;3.30;;;3.00;;
12976;SDS011;6553;48.412;9.514;2023-06-14T03:55:47;3.17;;;2.97;;
12976;SDS011;6553;48.412;9.514;2023-06-14T03:58:15;3.15;;;2.85;;
12976;SDS011;6553;48.412;9.514;2023-06-14T04:00:41;2.90;;;2.70;;
12976;SDS011;6553;48.412;9.514;2023-06-14T04:03:07;3.47;;;3.20;;
12976;SDS011;6553;48.412;9.514;2023-06-14T04:05:34;4.32;;;2.67;;
12976;SDS011;6553;48.412;9.514;2023-06-14T04:08:01;3.60;;;3.30;;
12976;SDS011;6553;48.412;9.514;2023-06-14T04:10:30;3.10;;;2.80;;
12976;SDS011;6553;48.412;9.514;2023-06-14T04:12:56;2.80;;;2.60;;
12976;SDS011;6553;48.412;9.514;2023-06-14T04:15:21;3.13;;;2.85;;
12976;SDS011;6553;48.412;9.514;2023-06-14T04:17:49;3.40;;;3.10;;
12976;SDS011;6553;48.412;9.514;2023-06-14T04:20:15;3.05;;;2.83;;
12976;SDS011;6553;48.412;9.514;2023-06-14T04:22:42;3.28;;;2.97;;
12976;SDS011;6553;48.412;9.514;2023-06-14T04:25:08;3.00;;;2.80;;
12976;SDS011;6553;48.412;9.514;2023-06-14T04:27:34;3.03;;;2.80;;
12976;SDS011;6553;48.412;9.514;2023-06-14T04:30:02;3.08;;;2.78;;
12976;SDS011;6553;48.412;9.514;2023-06-14T04:32:36;3.00;;;2.80;;
12976;SDS011;6553;48.412;9.514;2023-06-14T04:35:07;2.90;;;2.70;;
12976;SDS011;6553;48.412;9.514;2023-06-14T04:37:36;3.33;;;3.03;;
12976;SDS011;6553;48.412;9.514;2023-06-14T04:40:09;3.15;;;2.88;;
12976;SDS011;6553;48.412;9.514;2023-06-14T04:42:36;3.10;;;2.90;;
12976;SDS011;6553;48.412;9.514;2023-06-14T04:45:04;3.00;;;2.80;;
12976;SDS011;6553;48.412;9.514;2023-06-14T04:47:32;3.10;;;2.90;;
12976;SDS011;6553;48.412;9.514;2023-06-14T04:49:59;3.00;;;2.80;;
12976;SDS011;6553;48.412;9.514;2023-06-14T04:52:28;3.25;;;3.05;;
12976;SDS011;6553;48.412;9.514;2023-06-14T04:54:55;3.58;;;3.28;;
12976;SDS011;6553;48.412;9.514;2023-06-14T04:57:22;3.50;;;2.70;;
12976;SDS011;6553;48.412;9.514;2023-06-14T04:59:49;3.13;;;2.92;;
12976;SDS011;6553;48.412;9.514;2023-06-14T05:02:23;3.17;;;2.88;;
12976;SDS011;6553;48.412;9.514;2023-06-14T05:04:51;3.38;;;3.08;;
12976;SDS011;6553;48.412;9.514;2023-06-14T05:07:17;3.45;;;3.15;;
12976;SDS011;6553;48.412;9.514;2023-06-14T05:09:44;3.28;;;2.97;;
12976;SDS011;6553;48.412;9.514;2023-06-14T05:12:11;3.45;;;3.15;;
12976;SDS011;6553;48.412;9.514;2023-06-14T05:14:37;3.28;;;3.03;;
12976;SDS011;6553;48.412;9.514;2023-06-14T05:17:05;3.33;;;2.90;;
12976;SDS011;6553;48.412;9.514;2023-06-14T05:19:31;3.10;;;2.80;;
12976;SDS011;6553;48.412;9.514;2023-06-14T05:21:57;3.33;;;2.70;;
12976;SDS011;6553;48.412;9.514;2023-06-14T05:24:22;2.92;;;2.72;;
12976;SDS011;6553;48.412;9.514;2023-06-14T05:26:48;3.05;;;2.85;;
12976;SDS011;6553;48.412;9.514;2023-06-14T05:29:14;3.00;;;2.80;;
12976;SDS011;6553;48.412;9.514;2023-06-14T05:31:40;4.40;;;3.45;;
12976;SDS011;6553;48.412;9.514;2023-06-14T05:34:05;2.95;;;2.75;;
12976;SDS011;6553;48.412;9.514;2023-06-14T05:36:31;3.25;;;2.97;;
12976;SDS011;6553;48.412;9.514;2023-06-14T05:38:57;3.25;;;3.05;;
12976;SDS011;6553;48.412;9.514;2023-06-14T05:41:27;3.55;;;3.13;;
12976;SDS011;6553;48.412;9.514;2023-06-14T05:43:54;3.15;;;2.90;;
12976;SDS011;6553;48.412;9.514;2023-06-14T05:46:21;3.22;;;2.97;;
12976;SDS011;6553;48.412;9.514;2023-06-14T05:48:53;3.70;;;2.90;;
12976;SDS011;6553;48.412;9.514;2023-06-14T05:51:20;2.95;;;2.60;;
12976;SDS011;6553;48.412;9.514;2023-06-14T05:53:47;3.60;;;3.30;;
12976;SDS011;6553;48.412;9.514;2023-06-14T05:56:14;3.75;;;3.13;;
12976;SDS011;6553;48.412;9.514;2023-06-14T05:58:40;3.15;;;2.85;;
12976;SDS011;6553;48.412;9.514;2023-06-14T06:01:06;3.00;;;2.80;;
12976;SDS011;6553;48.412;9.514;2023-06-14T06:03:32;3.80;;;2.80;;
12976;SDS011;6553;48.412;9.514;2023-06-14T06:05:58;3.50;;;3.20;;
12976;SDS011;6553;48.412;9.514;2023-06-14T06:08:25;3.35;;;2.88;;
12976;SDS011;6553;48.412;9.514;2023-06-14T06:10:52;3.10;;;2.90;;
12976;SDS011;6553;48.412;9.514;2023-06-14T06:13:17;2.90;;;2.70;;
12976;SDS011;6553;48.412;9.514;2023-06-14T06:15:44;3.80;;;2.90;;
12976;SDS011;6553;48.412;9.514;2023-06-14T06:18:10;3.10;;;2.80;;
12976;SDS011;6553;48.412;9.514;2023-06-14T06:20:35;2.85;;;2.63;;
12976;SDS011;6553;48.412;9.514;2023-06-14T06:23:01;3.10;;;2.80;;
12976;SDS011;6553;48.412;9.514;2023-06-14T06:25:28;2.92;;;2.63;;
12976;SDS011;6553;48.412;9.514;2023-06-14T06:27:54;3.22;;;2.92;;
12976;SDS011;6553;48.412;9.514;2023-06-14T06:30:23;3.25;;;2.88;;
12976;SDS011;6553;48.412;9.514;2023-06-14T06:32:50;2.97;;;2.78;;
12976;SDS011;6553;48.412;9.514;2023-06-14T06:35:16;3.00;;;2.75;;
12976;SDS011;6553;48.412;9.514;2023-06-14T06:37:42;3.30;;;3.05;;
12976;SDS011;6553;48.412;9.514;2023-06-14T06:40:08;2.90;;;2.70;;
12976;SDS011;6553;48.412;9.514;2023-06-14T06:42:35;3.05;;;2.85;;
12976;SDS011;6553;48.412;9.514;2023-06-14T06:45:04;3.47;;;3.03;;
12976;SDS011;6553;48.412;9.514;2023-06-14T06:47:31;3.30;;;3.00;;
12976;SDS011;6553;48.412;9.514;2023-06-14T06:49:56;2.80;;;2.60;;
12976;SDS011;6553;48.412;9.514;2023-06-14T06:52:22;3.20;;;2.90;;
12976;SDS011;6553;48.412;9.514;2023-06-14T06:54:48;3.40;;;3.10;;
12976;SDS011;6553;48.412;9.514;2023-06-14T06:57:14;3.08;;;2.72;;
12976;SDS011;6553;48.412;9.514;2023-06-14T06:59:40;3.03;;;2.72;;
12976;SDS011;6553;48.412;9.514;2023-06-14T07:02:05;3.47;;;3.15;;
12976;SDS011;6553;48.412;9.514;2023-06-14T07:04:31;2.75;;;2.55;;
12976;SDS011;6553;48.412;9.514;2023-06-14T07:06:57;3.22;;;2.92;;
12976;SDS011;6553;48.412;9.514;2023-06-14T07:09:23;2.65;;;2.45;;
12976;SDS011;6553;48.412;9.514;2023-06-14T07:11:49;3.17;;;2.50;;
12976;SDS011;6553;48.412;9.514;2023-06-14T07:14:15;2.95;;;2.47;;
12976;SDS011;6553;48.412;9.514;2023-06-14T07:16:41;3.10;;;2.80;;
12976;SDS011;6553;48.412;9.514;2023-06-14T07:19:08;3.60;;;3.10;;
12976;SDS011;6553;48.412;9.514;2023-06-14T07:21:35;2.80;;;2.60;;
12976;SDS011;6553;48.412;9.514;2023-06-14T07:24:04;4.05;;;2.80;;
12976;SDS011;6553;48.412;9.514;2023-06-14T07:26:33;2.70;;;2.50;;
12976;SDS011;6553;48.412;9.514;2023-06-14T07:29:00;2.80;;;2.60;;
12976;SDS011;6553;48.412;9.514;2023-06-14T07:31:26;2.97;;;2.72;;
12976;SDS011;6553;48.412;9.514;2023-06-14T07:33:52;2.85;;;2.65;;
12976;SDS011;6553;48.412;9.514;2023-06-14T07:36:18;3.35;;;2.67;;
12976;SDS011;6553;48.412;9.514;2023-06-14T07:38:44;2.78;;;2.58;;
12976;SDS011;6553;48.412;9.514;2023-06-14T07:41:11;3.15;;;2.95;;
12976;SDS011;6553;48.412;9.514;2023-06-14T07:43:36;3.33;;;2.80;;
12976;SDS011;6553;48.412;9.514;2023-06-14T07:46:02;3.13;;;2.50;;
12976;SDS011;6553;48.412;9.514;2023-06-14T07:48:28;3.05;;;2.72;;
12976;SDS011;6553;48.412;9.514;2023-06-14T07:50:54;3.00;;;2.80;;
12976;SDS011;6553;48.412;9.514;2023-06-14T07:53:20;2.88;;;2.63;;
12976;SDS011;6553;48.412;9.514;2023-06-14T07:55:46;2.78;;;2.58;;
12976;SDS011;6553;48.412;9.514;2023-06-14T07:58:12;3.00;;;2.80;;
12976;SDS011;6553;48.412;9.514;2023-06-14T08:00:38;2.85;;;2.65;;
12976;SDS011;6553;48.412;9.514;2023-06-14T08:03:03;3.22;;;2.97;;
12976;SDS011;6553;48.412;9.514;2023-06-14T08:05:29;3.08;;;2.88;;
12976;SDS011;6553;48.412;9.514;2023-06-14T08:07:55;3.35;;;3.05;;
12976;SDS011;6553;48.412;9.514;2023-06-14T08:10:21;2.95;;;2.75;;
12976;SDS011;6553;48.412;9.514;2023-06-14T08:12:48;3.00;;;2.80;;
12976;SDS011;6553;48.412;9.514;2023-06-14T08:15:15;2.97;;;2.78;;
12976;SDS011;6553;48.412;9.514;2023-06-14T08:17:42;3.33;;;2.83;;
12976;SDS011;6553;48.412;9.514;2023-06-14T08:20:11;3.17;;;2.90;;
12976;SDS011;6553;48.412;9.514;2023-06-14T08:22:38;2.95;;;2.75;;
12976;SDS011;6553;48.412;9.514;2023-06-14T08:25:07;3.40;;;3.10;;
12976;SDS011;6553;48.412;9.514;2023-06-14T08:27:34;3.13;;;2.83;;
12976;SDS011;6553;48.412;9.514;2023-06-14T08:30:00;4.32;;;2.83;;
12976;SDS011;6553;48.412;9.514;2023-06-14T08:32:27;2.78;;;2.58;;
12976;SDS011;6553;48.412;9.514;2023-06-14T08:34:52;3.08;;;2.85;;
12976;SDS011;6553;48.412;9.514;2023-06-14T08:37:18;2.95;;;2.75;;
12976;SDS011;6553;48.412;9.514;2023-06-14T08:39:45;3.47;;;2.72;;
12976;SDS011;6553;48.412;9.514;2023-06-14T08:42:11;2.97;;;2.78;;
12976;SDS011;6553;48.412;9.514;2023-06-14T08:44:39;3.10;;;2.90;;
12976;SDS011;6553;48.412;9.514;2023-06-14T08:47:05;3.15;;;2.95;;
12976;SDS011;6553;48.412;9.514;2023-06-14T08:49:33;3.03;;;2.83;;
12976;SDS011;6553;48.412;9.514;2023-06-14T08:52:03;2.95;;;2.65;;
12976;SDS011;6553;48.412;9.514;2023-06-14T08:54:35;2.70;;;2.50;;
12976;SDS011;6553;48.412;9.514;2023-06-14T08:57:09;2.70;;;2.50;;
12976;SDS011;6553;48.412;9.514;2023-06-14T08:59:42;3.15;;;2.83;;
12976;SDS011;6553;48.412;9.514;2023-06-14T09:02:14;2.97;;;2.60;;
12976;SDS011;6553;48.412;9.514;2023-06-14T09:04:44;2.72;;;2.53;;
12976;SDS011;6553;48.412;9.514;2023-06-14T09:07:11;3.20;;;2.92;;
12976;SDS011;6553;48.412;9.514;2023-06-14T09:09:38;3.35;;;3.15;;
12976;SDS011;6553;48.412;9.514;2023-06-14T09:12:10;3.42;;;3.03;;
12976;SDS011;6553;48.412;9.514;2023-06-14T09:14:37;3.22;;;2.95;;
12976;SDS011;6553;48.412;9.514;2023-06-14T09:17:05;2.90;;;2.70;;
12976;SDS011;6553;48.412;9.514;2023-06-14T09:19:31;3.63;;;3.33;;
12976;SDS011;6553;48.412;9.514;2023-06-14T09:21:56;3.30;;;2.85;;
12976;SDS011;6553;48.412;9.514;2023-06-14T09:24:23;2.85;;;2.65;;
12976;SDS011;6553;48.412;9.514;2023-06-14T09:26:51;2.65;;;2.50;;
12976;SDS011;6553;48.412;9.514;2023-06-14T09:29:20;2.70;;;2.50;;
12976;SDS011;6553;48.412;9.514;2023-06-14T09:31:46;2.80;;;2.60;;
12976;SDS011;6553;48.412;9.514;2023-06-14T09:34:12;2.90;;;2.70;;
12976;SDS011;6553;48.412;9.514;2023-06-14T09:36:38;5.32;;;2.92;;
12976;SDS011;6553;48.412;9.514;2023-06-14T09:39:06;2.80;;;2.60;;
12976;SDS011;6553;48.412;9.514;2023-06-14T09:41:33;2.85;;;2.65;;
12976;SDS011;6553;48.412;9.514;2023-06-14T09:44:09;2.80;;;2.60;;
12976;SDS011;6553;48.412;9.514;2023-06-14T09:46:38;3.17;;;2.97;;
12976;SDS011;6553;48.412;9.514;2023-06-14T09:49:04;2.80;;;2.60;;
12976;SDS011;6553;48.412;9.514;2023-06-14T09:51:31;3.05;;;2.83;;
12976;SDS011;6553;48.412;9.514;2023-06-14T09:53:59;3.20;;;3.00;;
12976;SDS011;6553;48.412;9.514;2023-06-14T09:56:30;3.28;;;2.97;;
12976;SDS011;6553;48.412;9.514;2023-06-14T09:59:05;3.35;;;3.05;;
12976;SDS011;6553;48.412;9.514;2023-06-14T10:01:35;2.97;;;2.67;;
12976;SDS011;6553;48.412;9.514;2023-06-14T10:04:07;2.63;;;2.42;;
12976;SDS011;6553;48.412;9.514;2023-06-14T10:06:39;3.13;;;2.88;;
12976;SDS011;6553;48.412;9.514;2023-06-14T10:09:10;3.03;;;2.80;;
12976;SDS011;6553;48.412;9.514;2023-06-14T10:11:37;2.88;;;2.67;;
12976;SDS011;6553;48.412;9.514;2023-06-14T10:14:10;2.95;;;2.72;;
12976;SDS011;6553;48.412;9.514;2023-06-14T10:16:47;3.65;;;2.47;;
12976;SDS011;6553;48.412;9.514;2023-06-14T10:19:34;3.50;;;3.03;;
12976;SDS011;6553;48.412;9.514;2023-06-14T10:22:41;2.83;;;2.63;;
12976;SDS011;6553;48.412;9.514;2023-06-14T10:25:28;3.00;;;2.80;;
12976;SDS011;6553;48.412;9.514;2023-06-14T10:31:10;3.17;;;2.90;;
12976;SDS011;6553;48.412;9.514;2023-06-14T10:33:48;2.80;;;2.60;;
12976;SDS011;6553;48.412;9.514;2023-06-14T10:38:57;2.95;;;2.70;;
12976;SDS011;6553;48.412;9.514;2023-06-14T10:41:39;2.85;;;2.65;;
12976;SDS011;6553;48.412;9.514;2023-06-14T10:46:38;2.70;;;2.50;;
12976;SDS011;6553;48.412;9.514;2023-06-14T10:49:05;2.65;;;2.45;;
12976;SDS011;6553;48.412;9.514;2023-06-14T10:51:38;3.20;;;2.80;;
12976;SDS011;6553;48.412;9.514;2023-06-14T10:54:20;3.40;;;3.10;;
12976;SDS011;6553;48.412;9.514;2023-06-14T10:56:46;3.00;;;2.80;;
12976;SDS011;6553;48.412;9.514;2023-06-14T10:59:14;3.20;;;3.00;;
12976;SDS011;6553;48.412;9.514;2023-06-14T11:04:39;2.95;;;2.67;;
12976;SDS011;6553;48.412;9.514;2023-06-14T11:07:23;2.85;;;2.65;;
12976;SDS011;6553;48.412;9.514;2023-06-14T11:13:07;2.90;;;2.70;;
12976;SDS011;6553;48.412;9.514;2023-06-14T11:15:34;3.42;;;3.13;;
12976;SDS011;6553;48.412;9.514;2023-06-14T11:18:05;3.15;;;2.80;;
12976;SDS011;6553;48.412;9.514;2023-06-14T11:20:34;3.00;;;2.80;;
12976;SDS011;6553;48.412;9.514;2023-06-14T11:23:02;2.80;;;2.60;;
12976;SDS011;6553;48.412;9.514;2023-06-14T11:25:29;3.50;;;2.92;;
12976;SDS011;6553;48.412;9.514;2023-06-14T11:27:56;3.00;;;2.80;;
12976;SDS011;6553;48.412;9.514;2023-06-14T11:30:23;2.92;;;2.72;;
12976;SDS011;6553;48.412;9.514;2023-06-14T11:32:53;3.63;;;2.90;;
12976;SDS011;6553;48.412;9.514;2023-06-14T11:35:23;3.00;;;2.70;;
12976;SDS011;6553;48.412;9.514;2023-06-14T11:37:54;3.20;;;3.00;;
12976;SDS011;6553;48.412;9.514;2023-06-14T11:40:24;2.80;;;2.60;;
12976;SDS011;6553;48.412;9.514;2023-06-14T11:42:57;3.10;;;2.90;;
12976;SDS011;6553;48.412;9.514;2023-06-14T11:45:27;3.00;;;2.80;;
12976;SDS011;6553;48.412;9.514;2023-06-14T11:47:55;2.70;;;2.50;;
12976;SDS011;6553;48.412;9.514;2023-06-14T11:50:22;3.45;;;2.70;;
12976;SDS011;6553;48.412;9.514;2023-06-14T11:52:56;2.78;;;2.58;;
12976;SDS011;6553;48.412;9.514;2023-06-14T11:55:28;3.35;;;3.05;;
12976;SDS011;6553;48.412;9.514;2023-06-14T11:57:54;2.85;;;2.65;;
12976;SDS011;6553;48.412;9.514;2023-06-14T12:00:24;2.80;;;2.60;;
12976;SDS011;6553;48.412;9.514;2023-06-14T12:02:54;3.00;;;2.80;;
12976;SDS011;6553;48.412;9.514;2023-06-14T12:05:21;3.08;;;2.88;;
12976;SDS011;6553;48.412;9.514;2023-06-14T12:07:48;5.18;;;3.63;;
12976;SDS011;6553;48.412;9.514;2023-06-14T12:10:15;3.42;;;3.08;;
12976;SDS011;6553;48.412;9.514;2023-06-14T12:12:41;3.30;;;3.10;;
12976;SDS011;6553;48.412;9.514;2023-06-14T12:15:08;2.70;;;2.50;;
12976;SDS011;6553;48.412;9.514;2023-06-14T12:17:38;3.20;;;2.90;;
12976;SDS011;6553;48.412;9.514;2023-06-14T12:20:09;3.95;;;2.97;;
12976;SDS011;6553;48.412;9.514;2023-06-14T12:22:39;3.03;;;2.72;;
12976;SDS011;6553;48.412;9.514;2023-06-14T12:25:31;2.85;;;2.65;;
12976;SDS011;6553;48.412;9.514;2023-06-14T12:28:06;3.22;;;3.03;;
12976;SDS011;6553;48.412;9.514;2023-06-14T12:30:34;3.30;;;3.00;;
12976;SDS011;6553;48.412;9.514;2023-06-14T12:33:02;3.70;;;3.40;;
12976;SDS011;6553;48.412;9.514;2023-06-14T12:35:29;4.07;;;2.80;;
12976;SDS011;6553;48.412;9.514;2023-06-14T12:37:55;3.22;;;3.03;;
12976;SDS011;6553;48.412;9.514;2023-06-14T12:40:21;3.70;;;3.38;;
12976;SDS011;6553;48.412;9.514;2023-06-14T12:42:47;3.03;;;2.72;;
12976;SDS011;6553;48.412;9.514;2023-06-14T12:45:13;3.20;;;2.85;;
12976;SDS011;6553;48.412;9.514;2023-06-14T12:47:40;2.90;;;2.70;;
12976;SDS011;6553;48.412;9.514;2023-06-14T12:50:06;2.90;;;2.70;;
12976;SDS011;6553;48.412;9.514;2023-06-14T12:52:32;3.00;;;2.80;;
12976;SDS011;6553;48.412;9.514;2023-06-14T12:55:04;3.15;;;2.95;;
12976;SDS011;6553;48.412;9.514;2023-06-14T12:57:30;3.10;;;2.90;;
12976;SDS011;6553;48.412;9.514;2023-06-14T12:59:56;3.20;;;2.58;;
12976;SDS011;6553;48.412;9.514;2023-06-14T13:02:22;3.45;;;3.15;;
12976;SDS011;6553;48.412;9.514;2023-06-14T13:04:49;3.30;;;2.80;;
12976;SDS011;6553;48.412;9.514;2023-06-14T13:07:15;3.38;;;3.08;;
12976;SDS011;6553;48.412;9.514;2023-06-14T13:09:42;4.03;;;3.40;;
12976;SDS011;6553;48.412;9.514;2023-06-14T13:12:09;5.88;;;3.13;;
12976;SDS011;6553;48.412;9.514;2023-06-14T13:14:36;3.72;;;3.22;;
12976;SDS011;6553;48.412;9.514;2023-06-14T13:17:02;3.97;;;3.55;;
12976;SDS011;6553;48.412;9.514;2023-06-14T13:19:28;3.78;;;3.47;;
12976;SDS011;6553;48.412;9.514;2023-06-14T13:21:55;4.28;;;3.45;;
12976;SDS011;6553;48.412;9.514;2023-06-14T13:24:21;4.82;;;3.50;;
12976;SDS011;6553;48.412;9.514;2023-06-14T13:26:46;4.65;;;3.30;;
12976;SDS011;6553;48.412;9.514;2023-06-14T13:29:12;4.30;;;3.33;;
12976;SDS011;6553;48.412;9.514;2023-06-14T13:31:38;3.88;;;3.55;;
12976;SDS011;6553;48.412;9.514;2023-06-14T13:34:03;3.72;;;3.42;;
12976;SDS011;6553;48.412;9.514;2023-06-14T13:36:30;3.63;;;3.33;;
12976;SDS011;6553;48.412;9.514;2023-06-14T13:38:56;4.13;;;3.53;;
12976;SDS011;6553;48.412;9.514;2023-06-14T13:41:25;5.28;;;3.28;;
12976;SDS011;6553;48.412;9.514;2023-06-14T13:43:59;3.83;;;3.53;;
12976;SDS011;6553;48.412;9.514;2023-06-14T13:46:26;3.83;;;3.05;;
12976;SDS011;6553;48.412;9.514;2023-06-14T13:48:52;3.67;;;3.30;;
12976;SDS011;6553;48.412;9.514;2023-06-14T13:51:18;4.07;;;3.05;;
12976;SDS011;6553;48.412;9.514;2023-06-14T13:53:47;3.55;;;3.05;;
12976;SDS011;6553;48.412;9.514;2023-06-14T13:56:14;3.60;;;3.30;;
12976;SDS011;6553;48.412;9.514;2023-06-14T13:58:40;3.50;;;3.25;;
12976;SDS011;6553;48.412;9.514;2023-06-14T14:01:06;4.97;;;3.70;;
12976;SDS011;6553;48.412;9.514;2023-06-14T14:03:33;3.85;;;3.45;;
12976;SDS011;6553;48.412;9.514;2023-06-14T14:06:00;3.22;;;2.97;;
12976;SDS011;6553;48.412;9.514;2023-06-14T14:08:27;4.22;;;3.03;;
12976;SDS011;6553;48.412;9.514;2023-06-14T14:10:53;3.13;;;2.70;;
12976;SDS011;6553;48.412;9.514;2023-06-14T14:13:19;4.05;;;3.10;;
12976;SDS011;6553;48.412;9.514;2023-06-14T14:15:46;3.55;;;3.25;;
12976;SDS011;6553;48.412;9.514;2023-06-14T14:18:12;3.40;;;3.10;;
12976;SDS011;6553;48.412;9.514;2023-06-14T14:20:37;3.50;;;3.20;;
12976;SDS011;6553;48.412;9.514;2023-06-14T14:23:03;4.68;;;3.83;;
12976;SDS011;6553;48.412;9.514;2023-06-14T14:25:29;3.30;;;3.00;;
12976;SDS011;6553;48.412;9.514;2023-06-14T14:27:55;3.60;;;3.30;;
12976;SDS011;6553;48.412;9.514;2023-06-14T14:30:21;3.53;;;3.22;;
12976;SDS011;6553;48.412;9.514;2023-06-14T14:32:49;4.50;;;3.30;;
12976;SDS011;6553;48.412;9.514;2023-06-14T14:35:16;3.65;;;3.30;;
12976;SDS011;6553;48.412;9.514;2023-06-14T14:37:42;5.13;;;3.10;;
12976;SDS011;6553;48.412;9.514;2023-06-14T14:40:08;3.97;;;3.22;;
12976;SDS011;6553;48.412;9.514;2023-06-14T14:42:35;5.57;;;3.28;;
12976;SDS011;6553;48.412;9.514;2023-06-14T14:45:02;4.93;;;3.22;;
12976;SDS011;6553;48.412;9.514;2023-06-14T14:47:28;3.70;;;3.40;;
12976;SDS011;6553;48.412;9.514;2023-06-14T14:49:54;4.30;;;3.03;;
12976;SDS011;6553;48.412;9.514;2023-06-14T14:52:20;3.55;;;3.25;;
12976;SDS011;6553;48.412;9.514;2023-06-14T14:54:46;4.82;;;3.05;;
12976;SDS011;6553;48.412;9.514;2023-06-14T14:57:11;5.50;;;3.17;;
12976;SDS011;6553;48.412;9.514;2023-06-14T14:59:37;3.50;;;3.20;;
12976;SDS011;6553;48.412;9.514;2023-06-14T15:02:03;3.55;;;3.25;;
12976;SDS011;6553;48.412;9.514;2023-06-14T15:04:29;4.25;;;3.40;;
12976;SDS011;6553;48.412;9.514;2023-06-14T15:06:55;3.72;;;3.38;;
12976;SDS011;6553;48.412;9.514;2023-06-14T15:09:20;4.57;;;3.25;;
12976;SDS011;6553;48.412;9.514;2023-06-14T15:11:46;3.50;;;3.20;;
12976;SDS011;6553;48.412;9.514;2023-06-14T15:14:12;5.90;;;3.65;;
12976;SDS011;6553;48.412;9.514;2023-06-14T15:16:39;4.63;;;3.30;;
12976;SDS011;6553;48.412;9.514;2023-06-14T15:19:05;4.03;;;3.25;;
12976;SDS011;6553;48.412;9.514;2023-06-14T15:21:31;4.40;;;3.47;;
12976;SDS011;6553;48.412;9.514;2023-06-14T15:23:56;4.50;;;3.35;;